Time;durP1;ratioP1;P1;durP2;ratioP2;P2;SDS_P1;SDS_P2;PMS_P1;PMS_P2;Temp;Humidity;BMP_temperature;BMP_pressure;BME280_temperature;BME280_humidity;BME280_pressure;Samples;Min_cycle;Max_cycle;Signal;HPM_P1;HPM_P2
2024/01/24 00:02:17;;;;;;;;;1.33;1.00;;;;;13.81;84.81;102045.00;5058880;28;45670;-67
2024/01/24 00:04:42;;;;;;;;;0.67;0.67;;;;;13.75;84.93;102024.78;5074923;28;45956;-67
2024/01/24 00:07:08;;;;;;;;;0.00;0.00;;;;;13.81;84.17;102026.56;5070627;28;45555;-69
2024/01/24 00:09:33;;;;;;;;;0.00;0.00;;;;;13.74;84.41;102031.81;5076054;27;45792;-64
2024/01/24 00:11:59;;;;;;;;;0.00;0.00;;;;;13.75;84.41;102033.56;5068591;27;45543;-65
2024/01/24 00:14:26;;;;;;;;;0.00;0.00;;;;;13.81;84.16;102042.38;5070626;28;45820;-67
2024/01/24 00:16:52;;;;;;;;;0.00;0.00;;;;;13.83;84.26;102052.06;5075052;27;45487;-68
2024/01/24 00:19:17;;;;;;;;;0.00;0.00;;;;;13.82;84.27;102041.53;5091406;27;45369;-67
2024/01/24 00:21:43;;;;;;;;;1.00;0.00;;;;;13.68;84.02;102018.56;5076627;28;45260;-64
2024/01/24 00:24:08;;;;;;;;;0.00;0.00;;;;;13.82;84.02;102047.66;5069573;28;45554;-65
2024/01/24 00:26:37;;;;;;;;;0.00;0.00;;;;;13.83;84.07;102064.34;5064263;27;45437;-64
2024/01/24 00:29:03;;;;;;;;;0.00;0.00;;;;;13.76;83.89;102037.97;5070329;27;45505;-66
2024/01/24 00:31:28;;;;;;;;;1.00;0.00;;;;;13.85;83.56;102045.06;5072083;28;45464;-65
2024/01/24 00:33:54;;;;;;;;;0.00;0.00;;;;;13.83;83.81;102044.16;5065872;28;45481;-67
2024/01/24 00:36:19;;;;;;;;;0.00;0.00;;;;;13.71;83.77;102033.50;5065017;28;45443;-67
2024/01/24 00:38:45;;;;;;;;;0.00;0.00;;;;;13.85;83.50;102041.53;5062362;28;46484;-65
2024/01/24 00:41:11;;;;;;;;;0.00;0.00;;;;;13.88;83.88;102045.09;5069666;28;45482;-65
2024/01/24 00:43:36;;;;;;;;;0.00;0.00;;;;;13.87;83.53;102052.97;5062007;27;45946;-65
2024/01/24 00:46:02;;;;;;;;;0.00;0.00;;;;;13.87;83.47;102052.97;5075323;27;45448;-66
2024/01/24 00:48:27;;;;;;;;;0.00;0.00;;;;;13.91;83.39;102062.69;5092020;27;45470;-67
2024/01/24 00:50:53;;;;;;;;;0.00;0.00;;;;;13.87;83.79;102050.34;5065666;28;45521;-66
2024/01/24 00:53:20;;;;;;;;;0.00;0.00;;;;;13.89;83.56;102053.88;5056095;28;46032;-65
2024/01/24 00:55:46;;;;;;;;;0.00;0.00;;;;;13.84;83.46;102053.84;5064089;28;45538;-64
2024/01/24 00:58:12;;;;;;;;;0.00;0.00;;;;;13.88;83.53;102058.28;5063455;28;45587;-66
2024/01/24 01:00:38;;;;;;;;;0.00;0.00;;;;;13.92;83.31;102067.06;5056342;28;45411;-63
2024/01/24 01:03:04;;;;;;;;;1.00;0.00;;;;;13.93;83.53;102071.50;5067291;28;46270;-67
2024/01/24 01:05:29;;;;;;;;;0.00;0.00;;;;;13.89;83.98;102064.41;5075689;28;45537;-64
2024/01/24 01:07:55;;;;;;;;;0.00;0.00;;;;;13.92;83.68;102060.03;5064130;28;45468;-66
2024/01/24 01:10:21;;;;;;;;;0.67;0.00;;;;;13.93;83.65;102067.09;5064403;28;45839;-64
2024/01/24 01:12:46;;;;;;;;;0.00;0.00;;;;;13.92;83.92;102057.41;5065840;27;46200;-66
2024/01/24 01:15:12;;;;;;;;;0.00;0.00;;;;;13.84;83.89;102045.94;5059444;28;45271;-68
2024/01/24 01:17:37;;;;;;;;;0.67;0.00;;;;;13.91;83.97;102067.94;5069350;27;45428;-65
2024/01/24 01:20:04;;;;;;;;;0.00;0.00;;;;;13.80;84.14;102049.41;5083080;27;45525;-65
2024/01/24 01:22:30;;;;;;;;;0.00;0.00;;;;;13.82;84.89;102044.16;5071983;28;45468;-66
2024/01/24 01:24:56;;;;;;;;;0.00;0.00;;;;;13.88;84.64;102058.28;5067174;28;45879;-66
2024/01/24 01:27:22;;;;;;;;;0.00;0.00;;;;;13.82;85.01;102052.94;5067076;28;45484;-64
2024/01/24 01:29:48;;;;;;;;;0.00;0.00;;;;;13.87;85.31;102061.75;5066923;28;45412;-64
2024/01/24 01:32:14;;;;;;;;;0.00;0.00;;;;;13.81;85.29;102047.63;5062552;28;46718;-65
2024/01/24 01:34:40;;;;;;;;;0.00;0.00;;;;;13.90;85.73;102055.63;5069544;28;45533;-64
2024/01/24 01:37:06;;;;;;;;;0.00;0.00;;;;;13.84;85.68;102045.94;5074501;27;45340;-66
2024/01/24 01:39:32;;;;;;;;;0.00;0.00;;;;;13.86;86.30;102048.59;5066599;28;45409;-66
2024/01/24 01:41:58;;;;;;;;;0.00;0.00;;;;;13.83;86.55;102053.81;5065955;27;46212;-66
2024/01/24 01:44:24;;;;;;;;;0.00;0.00;;;;;13.75;86.83;102037.94;5076907;27;45377;-66
2024/01/24 01:46:51;;;;;;;;;0.00;0.00;;;;;13.76;86.99;102034.44;5065167;28;45172;-65
2024/01/24 01:49:17;;;;;;;;;0.00;0.00;;;;;13.84;87.49;102056.47;5066254;28;46726;-65
2024/01/24 01:51:44;;;;;;;;;0.00;0.00;;;;;13.75;87.38;102056.38;5099291;27;45813;-67
2024/01/24 01:54:12;;;;;;;;;0.67;0.00;;;;;13.84;87.82;102092.47;5074579;27;45649;-65
2024/01/24 01:56:39;;;;;;;;;0.00;0.00;;;;;13.79;87.95;102076.63;5061677;28;45429;-64
2024/01/24 01:59:05;;;;;;;;;0.00;0.00;;;;;13.83;87.75;102088.03;5064327;28;45378;-65
2024/01/24 02:01:32;;;;;;;;;0.00;0.00;;;;;13.82;87.74;102087.16;5078304;28;45625;-66
2024/01/24 02:03:59;;;;;;;;;0.00;0.00;;;;;13.79;87.83;102090.66;5079787;27;45491;-65
2024/01/24 02:06:24;;;;;;;;;0.00;0.00;;;;;13.75;87.82;102094.13;5077259;27;45411;-65
2024/01/24 02:08:51;;;;;;;;;0.00;0.00;;;;;13.70;88.33;102077.41;5070227;27;45433;-64
2024/01/24 02:11:17;;;;;;;;;0.00;0.00;;;;;13.63;88.32;102064.16;5068585;28;46506;-66
2024/01/24 02:13:43;;;;;;;;;0.00;0.00;;;;;13.75;88.23;102070.41;5073369;27;45579;-67
2024/01/24 02:16:13;;;;;;;;;0.00;0.00;;;;;13.74;88.05;102065.16;5111853;27;45570;-64
2024/01/24 02:18:39;;;;;;;;;0.00;0.00;;;;;13.73;88.56;102071.28;5080219;27;45735;-66
2024/01/24 02:21:05;;;;;;;;;0.00;0.00;;;;;13.54;89.09;102034.22;5078239;28;46196;-64
2024/01/24 02:23:30;;;;;;;;;0.00;0.00;;;;;13.65;88.68;102059.78;5075290;28;45545;-67
2024/01/24 02:25:57;;;;;;;;;0.00;0.00;;;;;13.64;89.12;102079.06;5079608;27;45441;-66
2024/01/24 02:28:24;;;;;;;;;0.00;0.00;;;;;13.62;88.83;102080.81;5076934;27;45438;-67
2024/01/24 02:30:49;;;;;;;;;0.00;0.00;;;;;13.63;88.86;102070.28;5069429;27;46204;-64
2024/01/24 02:33:15;;;;;;;;;0.00;0.00;;;;;13.64;89.36;102073.81;5067363;27;45337;-68
2024/01/24 02:35:40;;;;;;;;;0.00;0.00;;;;;13.55;89.07;102072.84;5075858;28;45340;-67
2024/01/24 02:38:06;;;;;;;;;0.00;0.00;;;;;13.61;88.95;102079.94;5079606;28;45484;-66
2024/01/24 02:40:31;;;;;;;;;0.00;0.00;;;;;13.66;88.97;102087.88;5079461;28;46170;-67
2024/01/24 02:42:57;;;;;;;;;0.00;0.00;;;;;13.67;89.14;102079.13;5080603;28;45548;-67
2024/01/24 02:45:23;;;;;;;;;0.00;0.00;;;;;13.67;88.69;102089.66;5096424;27;45495;-65
2024/01/24 02:47:49;;;;;;;;;0.00;0.00;;;;;13.60;89.14;102074.66;5079302;27;45500;-68
2024/01/24 02:50:14;;;;;;;;;0.00;0.00;;;;;13.65;89.21;102070.31;5078054;27;45846;-67
2024/01/24 02:52:40;;;;;;;;;0.00;0.00;;;;;13.65;88.60;102075.59;5078944;27;45444;-65
2024/01/24 02:55:07;;;;;;;;;0.00;0.00;;;;;13.70;88.88;102084.41;5078080;27;45426;-67
2024/01/24 02:57:32;;;;;;;;;0.00;0.00;;;;;13.57;88.51;102065.88;5079083;27;45303;-67
2024/01/24 02:59:58;;;;;;;;;0.00;0.00;;;;;13.67;88.59;102073.88;5079539;28;45914;-67
2024/01/24 03:02:23;;;;;;;;;0.00;0.00;;;;;13.69;88.55;102085.25;5078689;28;45619;-66
2024/01/24 03:04:49;;;;;;;;;0.00;0.00;;;;;13.73;88.28;102073.91;5067899;27;45539;-69
2024/01/24 03:07:14;;;;;;;;;0.00;0.00;;;;;13.65;88.32;102071.19;5079596;27;45499;-67
2024/01/24 03:09:40;;;;;;;;;0.00;0.00;;;;;13.73;87.93;102085.31;5078623;27;45325;-66
2024/01/24 03:12:06;;;;;;;;;0.00;0.00;;;;;13.39;87.65;102010.38;5078693;28;45512;-65
2024/01/24 03:14:31;;;;;;;;;1.00;0.00;;;;;13.73;87.26;102084.44;5078795;27;45423;-68
2024/01/24 03:16:57;;;;;;;;;0.00;0.00;;;;;13.65;87.40;102068.56;5079498;27;45459;-66
2024/01/24 03:19:22;;;;;;;;;0.00;0.00;;;;;13.72;87.27;102090.59;5078742;27;45442;-66
2024/01/24 03:21:48;;;;;;;;;0.00;0.00;;;;;13.58;87.26;102064.09;5095026;27;45408;-66
2024/01/24 03:24:14;;;;;;;;;0.00;0.00;;;;;13.81;87.62;102100.31;5080232;27;45429;-67
2024/01/24 03:26:39;;;;;;;;;0.00;0.00;;;;;13.78;87.18;102095.91;5080263;27;45491;-66
2024/01/24 03:29:05;;;;;;;;;0.33;0.00;;;;;13.82;86.97;102099.47;5079805;27;45536;-67
2024/01/24 03:31:30;;;;;;;;;0.00;0.00;;;;;13.75;86.75;102078.31;5078691;28;45471;-68
2024/01/24 03:33:56;;;;;;;;;0.00;0.00;;;;;13.83;86.92;102096.81;5064513;27;45486;-66
2024/01/24 03:36:22;;;;;;;;;0.00;0.00;;;;;13.85;86.51;102096.84;5078866;27;45760;-66
2024/01/24 03:38:49;;;;;;;;;0.00;0.00;;;;;13.86;86.72;102093.38;5074767;28;45435;-67
2024/01/24 03:41:14;;;;;;;;;0.00;0.00;;;;;13.80;86.55;102070.47;5078447;27;45602;-68
2024/01/24 03:43:40;;;;;;;;;0.00;0.00;;;;;13.72;85.74;102053.72;5078575;28;45548;-66
2024/01/24 03:46:06;;;;;;;;;0.00;0.00;;;;;13.83;86.15;102062.59;5078803;28;45461;-67
2024/01/24 03:48:32;;;;;;;;;0.00;0.00;;;;;13.87;85.92;102074.94;5078711;27;46072;-66
2024/01/24 03:50:58;;;;;;;;;0.00;0.00;;;;;13.76;86.23;102052.88;5078535;28;46093;-66
2024/01/24 03:53:24;;;;;;;;;0.67;0.00;;;;;13.81;85.94;102055.53;5078487;27;45412;-66
2024/01/24 03:55:50;;;;;;;;;0.00;0.00;;;;;13.87;85.99;102067.03;5078233;27;45325;-67
2024/01/24 03:58:16;;;;;;;;;0.00;0.00;;;;;13.89;85.76;102075.81;5078075;28;45450;-67
2024/01/24 04:00:41;;;;;;;;;0.00;0.00;;;;;13.85;85.94;102068.75;5078653;27;45464;-66
2024/01/24 04:03:07;;;;;;;;;0.00;0.00;;;;;13.88;85.58;102057.38;5078643;27;45579;-66
2024/01/24 04:05:33;;;;;;;;;0.00;0.00;;;;;13.93;85.53;102059.19;5078544;27;45468;-67
2024/01/24 04:07:58;;;;;;;;;0.00;0.00;;;;;13.93;85.40;102066.22;5078345;28;45506;-67
2024/01/24 04:10:24;;;;;;;;;0.00;0.00;;;;;13.93;85.08;102053.06;5111229;27;46857;-67
2024/01/24 04:12:50;;;;;;;;;0.00;0.00;;;;;13.95;85.65;102061.81;5093240;27;45343;-65
2024/01/24 04:15:16;;;;;;;;;0.00;0.00;;;;;13.93;85.31;102064.47;5078345;27;45308;-65
2024/01/24 04:17:42;;;;;;;;;0.00;0.00;;;;;13.92;85.30;102051.28;5079255;28;45445;-65
2024/01/24 04:20:08;;;;;;;;;1.00;0.00;;;;;13.91;85.53;102058.28;5076472;27;45454;-68
2024/01/24 04:22:34;;;;;;;;;1.00;0.00;;;;;13.89;85.32;102049.50;5078280;27;45290;-68
2024/01/24 04:25:00;;;;;;;;;0.00;0.00;;;;;13.71;84.96;102029.13;5090286;27;45594;-67
2024/01/24 04:27:26;;;;;;;;;0.00;0.00;;;;;13.96;85.10;102072.38;5067482;28;45520;-66
2024/01/24 04:29:52;;;;;;;;;0.00;0.00;;;;;13.97;84.70;102062.72;5077661;27;45448;-66
2024/01/24 04:32:17;;;;;;;;;0.00;0.00;;;;;13.99;84.48;102069.78;5074011;28;45425;-67
2024/01/24 04:34:44;;;;;;;;;0.00;0.00;;;;;13.93;84.92;102072.38;5067624;28;45329;-66
2024/01/24 04:37:09;;;;;;;;;0.00;0.00;;;;;13.90;84.64;102061.78;5074510;28;47662;-67
2024/01/24 04:39:35;;;;;;;;;0.00;0.00;;;;;13.92;84.63;102077.59;5077464;27;45554;-65
2024/01/24 04:42:01;;;;;;;;;0.00;0.00;;;;;13.94;85.01;102092.56;5097830;27;45487;-66
2024/01/24 04:44:26;;;;;;;;;0.00;0.00;;;;;13.98;84.94;102089.09;5071756;28;45497;-65
2024/01/24 04:46:52;;;;;;;;;0.00;0.00;;;;;13.84;84.69;102069.63;5072044;28;46532;-66
2024/01/24 04:49:18;;;;;;;;;1.00;0.00;;;;;14.01;84.46;102109.31;5063937;27;45565;-68
2024/01/24 04:51:44;;;;;;;;;10.33;9.67;;;;;14.02;84.30;102105.78;5078710;28;45548;-66
2024/01/24 04:54:10;;;;;;;;;0.00;0.00;;;;;14.02;84.47;102123.34;5092713;27;45596;-66
2024/01/24 04:56:35;;;;;;;;;0.00;0.00;;;;;13.95;84.39;102104.88;5077233;28;45352;-65
2024/01/24 04:59:01;;;;;;;;;0.00;0.00;;;;;13.88;83.97;102100.41;5077255;27;45521;-67
2024/01/24 05:01:28;;;;;;;;;12.33;8.33;;;;;13.99;84.27;102104.00;5077263;27;45400;-67
2024/01/24 05:03:53;;;;;;;;;0.00;0.00;;;;;14.09;84.68;102118.16;5078372;27;45528;-66
2024/01/24 05:06:19;;;;;;;;;0.00;0.00;;;;;14.10;84.05;102127.84;5078791;27;45546;-66
2024/01/24 05:08:45;;;;;;;;;0.00;0.00;;;;;14.03;83.97;102104.06;5091372;27;45607;-66
2024/01/24 05:11:22;;;;;;;;;0.00;0.00;;;;;14.02;83.74;102118.97;5078403;27;45432;-68
2024/01/24 05:13:51;;;;;;;;;0.00;0.00;;;;;14.14;83.96;102144.53;5067151;27;45600;-66
2024/01/24 05:16:17;;;;;;;;;0.00;0.00;;;;;14.13;83.98;102138.41;5070230;27;46376;-68
2024/01/24 05:18:43;;;;;;;;;0.00;0.00;;;;;14.16;83.48;102148.09;5077077;28;45582;-65
2024/01/24 05:21:09;;;;;;;;;0.00;0.00;;;;;14.05;83.18;102132.19;5072594;28;45468;-64
2024/01/24 05:23:34;;;;;;;;;0.00;0.00;;;;;14.12;83.31;102146.31;5065074;28;45325;-64
2024/01/24 05:26:01;;;;;;;;;0.00;0.00;;;;;14.18;83.35;102148.97;5064044;27;45451;-65
2024/01/24 05:28:27;;;;;;;;;0.00;0.00;;;;;14.10;82.95;102142.78;5064669;27;45543;-67
2024/01/24 05:30:52;;;;;;;;;0.00;0.00;;;;;14.17;83.34;102158.66;5073595;27;45403;-66
2024/01/24 05:33:18;;;;;;;;;0.00;0.00;;;;;14.16;83.67;102162.13;5057428;28;45718;-66
2024/01/24 05:35:45;;;;;;;;;1.00;1.00;;;;;14.19;83.68;102164.81;5074508;28;46058;-65
2024/01/24 05:38:11;;;;;;;;;0.00;0.00;;;;;14.14;83.50;102168.25;5075596;28;45342;-66
2024/01/24 05:40:37;;;;;;;;;0.00;0.00;;;;;14.14;83.86;102184.06;5076762;27;45524;-68
2024/01/24 05:43:03;;;;;;;;;0.00;0.00;;;;;14.20;84.28;102194.69;5094295;27;45639;-65
2024/01/24 05:45:29;;;;;;;;;0.00;0.00;;;;;14.09;84.12;102177.88;5063078;27;45472;-67
2024/01/24 05:47:54;;;;;;;;;0.00;0.00;;;;;14.20;84.34;102199.94;5060007;28;45561;-68
2024/01/24 05:50:20;;;;;;;;;0.00;0.00;;;;;14.22;84.19;102211.41;5055945;28;45552;-63
2024/01/24 05:52:45;;;;;;;;;0.00;0.00;;;;;14.18;84.49;102212.22;5061275;28;45383;-67
2024/01/24 05:55:12;;;;;;;;;0.00;0.00;;;;;14.14;84.63;102203.41;5074784;27;46151;-66
2024/01/24 05:57:41;;;;;;;;;0.67;0.00;;;;;14.13;84.88;102200.75;5076518;27;45338;-66
2024/01/24 06:00:09;;;;;;;;;0.00;0.00;;;;;14.12;85.18;102201.63;5077547;27;45349;-68
2024/01/24 06:02:38;;;;;;;;;0.00;0.00;;;;;14.19;85.22;102216.66;5076709;28;45779;-67
2024/01/24 06:05:04;;;;;;;;;0.67;0.00;;;;;14.20;84.81;102228.94;5076547;28;45339;-67
2024/01/24 06:07:30;;;;;;;;;0.00;0.00;;;;;14.18;84.81;102222.75;5084479;27;45386;-66
2024/01/24 06:09:57;;;;;;;;;0.00;0.00;;;;;14.21;84.78;102241.25;5076213;28;45488;-66
2024/01/24 06:12:22;;;;;;;;;0.00;0.00;;;;;14.20;84.88;102240.34;5076634;27;45238;-67
2024/01/24 06:14:49;;;;;;;;;0.00;0.00;;;;;14.15;84.94;102236.78;5074449;28;46602;-67
2024/01/24 06:17:15;;;;;;;;;0.00;0.00;;;;;14.21;85.07;102242.16;5077321;27;45190;-67
2024/01/24 06:19:42;;;;;;;;;0.00;0.00;;;;;14.23;85.01;102257.94;5077352;27;45430;-66
2024/01/24 06:22:09;;;;;;;;;0.00;0.00;;;;;14.19;85.49;102248.28;5077622;27;45389;-66
2024/01/24 06:24:35;;;;;;;;;0.00;0.00;;;;;14.20;86.16;102264.06;5075619;27;45469;-64
2024/01/24 06:27:01;;;;;;;;;0.00;0.00;;;;;14.15;86.04;102255.25;5076414;27;45543;-67
2024/01/24 06:29:27;;;;;;;;;0.33;0.00;;;;;14.15;86.75;102283.34;5076686;27;45499;-67
2024/01/24 06:31:53;;;;;;;;;0.00;0.00;;;;;14.14;87.21;102289.47;5074097;27;45557;-67
2024/01/24 06:34:18;;;;;;;;;0.00;0.00;;;;;14.09;87.62;102285.91;5062172;28;45647;-67
2024/01/24 06:36:44;;;;;;;;;0.00;0.00;;;;;14.05;88.18;102284.06;5076621;28;45317;-65
2024/01/24 06:39:10;;;;;;;;;0.00;0.00;;;;;14.08;88.71;102298.19;5079456;28;45544;-66
2024/01/24 06:41:36;;;;;;;;;0.00;0.00;;;;;14.04;89.14;102287.59;5079589;27;45492;-67
2024/01/24 06:44:05;;;;;;;;;0.00;0.00;;;;;14.07;89.40;102308.69;5098407;27;46563;-67
2024/01/24 06:46:31;;;;;;;;;0.00;0.00;;;;;14.06;89.49;102318.34;5079438;27;45452;-66
2024/01/24 06:48:57;;;;;;;;;0.00;0.00;;;;;14.01;89.71;102317.41;5079177;27;45376;-67
2024/01/24 06:51:22;;;;;;;;;0.00;0.00;;;;;14.01;89.65;102312.16;5079799;28;45444;-66
2024/01/24 06:53:48;;;;;;;;;0.67;0.00;;;;;14.02;90.26;102324.44;5079845;27;45772;-67
2024/01/24 06:56:14;;;;;;;;;0.00;0.00;;;;;14.04;89.74;102337.66;5079081;27;45800;-66
2024/01/24 06:58:42;;;;;;;;;0.00;0.00;;;;;13.93;89.76;102327.00;5079692;27;45281;-65
2024/01/24 07:01:08;;;;;;;;;0.00;0.00;;;;;13.82;90.00;102311.03;5079044;27;45365;-65
2024/01/24 07:03:34;;;;;;;;;0.00;0.00;;;;;13.96;89.82;102340.19;5071924;27;47106;-67
2024/01/24 07:06:00;;;;;;;;;0.00;0.00;;;;;13.88;88.72;102332.19;5075626;28;45402;-67
2024/01/24 07:08:25;;;;;;;;;0.67;0.00;;;;;13.88;89.12;102334.81;5078591;27;45400;-66
2024/01/24 07:10:51;;;;;;;;;0.00;0.00;;;;;13.93;88.75;102343.66;5079195;27;45617;-67
2024/01/24 07:13:16;;;;;;;;;1.00;1.00;;;;;13.94;88.14;102350.69;5077296;27;46878;-66
2024/01/24 07:15:42;;;;;;;;;0.00;0.00;;;;;13.88;87.98;102340.09;5078950;28;45344;-66
2024/01/24 07:18:09;;;;;;;;;0.00;0.00;;;;;13.83;87.67;102327.69;5064677;27;45386;-65
2024/01/24 07:20:35;;;;;;;;;0.00;0.00;;;;;13.83;87.47;102328.56;5073025;28;45753;-65
2024/01/24 07:23:01;;;;;;;;;0.33;0.00;;;;;13.90;86.87;102346.22;5079845;27;47264;-66
2024/01/24 07:25:27;;;;;;;;;0.00;0.00;;;;;13.91;86.70;102339.25;5078555;27;45451;-65
2024/01/24 07:27:53;;;;;;;;;2.00;0.00;;;;;13.80;86.37;102325.91;5095230;27;45925;-66
2024/01/24 07:30:22;;;;;;;;;1.00;0.00;;;;;13.83;85.82;102343.50;5075824;27;45381;-64
2024/01/24 07:32:47;;;;;;;;;1.00;0.00;;;;;13.77;85.84;102339.91;5070775;27;45580;-67
2024/01/24 07:35:13;;;;;;;;;0.00;0.00;;;;;13.79;85.32;102359.28;5072169;27;45457;-65
2024/01/24 07:37:39;;;;;;;;;1.33;0.00;;;;;13.74;85.39;102344.28;5079353;27;45381;-66
2024/01/24 07:40:05;;;;;;;;;0.00;0.00;;;;;13.74;85.32;102353.06;5078299;27;45573;-67
2024/01/24 07:42:30;;;;;;;;;1.67;0.00;;;;;13.71;85.01;102350.34;5073012;27;46274;-66
2024/01/24 07:44:56;;;;;;;;;0.67;0.67;;;;;13.76;84.65;102363.59;5063192;28;45519;-67
2024/01/24 07:47:21;;;;;;;;;1.00;0.00;;;;;13.74;84.82;102366.22;5065217;28;45607;-65
2024/01/24 07:49:47;;;;;;;;;0.00;0.00;;;;;13.77;84.30;102381.19;5080040;28;45521;-66
2024/01/24 07:52:13;;;;;;;;;0.00;0.00;;;;;13.62;84.17;102354.59;5071589;27;45562;-66
2024/01/24 07:54:38;;;;;;;;;1.00;0.00;;;;;13.76;84.33;102385.56;5076684;28;45476;-67
2024/01/24 07:57:04;;;;;;;;;2.00;1.00;;;;;13.79;83.53;102397.88;5078058;27;45584;-66
2024/01/24 07:59:30;;;;;;;;;2.00;0.33;;;;;13.82;83.67;102411.09;5078213;27;45772;-67
2024/01/24 08:01:56;;;;;;;;;0.67;0.67;;;;;13.83;83.18;102412.84;5079239;27;45412;-67
2024/01/24 08:04:21;;;;;;;;;3.00;0.33;;;;;13.87;83.18;102432.25;5077816;27;45490;-66
2024/01/24 08:06:47;;;;;;;;;0.00;0.00;;;;;13.60;83.48;102377.41;5078278;27;45535;-65
2024/01/24 08:09:13;;;;;;;;;0.33;0.33;;;;;13.86;82.88;102412.03;5094030;27;45615;-64
2024/01/24 08:11:40;;;;;;;;;0.33;0.00;;;;;13.92;82.47;102422.66;5077018;27;48043;-67
2024/01/24 08:14:05;;;;;;;;;2.00;2.00;;;;;13.91;82.20;102424.41;5079642;28;45494;-66
2024/01/24 08:16:31;;;;;;;;;0.00;0.00;;;;;13.84;81.72;102416.41;5078181;27;45208;-65
2024/01/24 08:18:58;;;;;;;;;1.33;0.00;;;;;13.95;81.62;102427.97;5078077;28;45445;-66
2024/01/24 08:21:24;;;;;;;;;2.00;0.00;;;;;13.97;81.07;102416.59;5075785;28;45532;-67
2024/01/24 08:23:49;;;;;;;;;0.33;0.00;;;;;14.06;80.75;102429.00;5076338;28;45520;-66
2024/01/24 08:26:15;;;;;;;;;1.00;0.67;;;;;14.16;79.75;102433.53;5077088;28;45533;-66
2024/01/24 08:28:42;;;;;;;;;1.00;1.00;;;;;14.45;78.33;102429.53;5063448;28;45880;-66
2024/01/24 08:31:09;;;;;;;;;4.00;1.00;;;;;14.92;76.25;102451.25;5064242;27;46303;-64
2024/01/24 08:33:34;;;;;;;;;2.00;0.00;;;;;15.55;74.50;102467.75;5072582;28;46104;-68
2024/01/24 08:36:00;;;;;;;;;3.00;1.00;;;;;16.27;71.97;102446.25;5077779;28;45403;-66
2024/01/24 08:38:26;;;;;;;;;2.00;0.00;;;;;17.01;68.88;102457.19;5064679;28;45452;-65
2024/01/24 08:40:51;;;;;;;;;1.00;1.00;;;;;17.55;65.90;102447.56;5077035;27;45345;-66
2024/01/24 08:43:17;;;;;;;;;4.33;1.00;;;;;17.95;64.07;102458.19;5073952;27;45485;-66
2024/01/24 08:45:45;;;;;;;;;3.00;1.33;;;;;18.28;62.17;102454.59;5078368;28;45379;-63
2024/01/24 08:48:12;;;;;;;;;1.00;1.00;;;;;18.43;61.17;102461.59;5065035;27;45417;-68
2024/01/24 08:50:38;;;;;;;;;2.00;1.00;;;;;18.67;60.10;102462.41;5076662;27;45431;-66
2024/01/24 08:53:04;;;;;;;;;3.00;1.00;;;;;18.87;59.03;102452.63;5072782;27;45373;-63
2024/01/24 08:55:29;;;;;;;;;1.00;1.00;;;;;19.06;57.64;102448.09;5059432;28;45841;-65
2024/01/24 08:57:56;;;;;;;;;3.00;1.00;;;;;18.87;57.66;102457.94;5075775;28;45578;-68
2024/01/24 09:00:21;;;;;;;;;2.00;2.00;;;;;19.34;57.07;102413.34;5076202;27;45664;-64
2024/01/24 09:02:47;;;;;;;;;3.33;0.33;;;;;19.74;55.47;102452.91;5075631;28;45517;-66
2024/01/24 09:05:12;;;;;;;;;1.00;1.00;;;;;19.54;55.18;102442.44;5061412;28;45468;-67
2024/01/24 09:07:38;;;;;;;;;2.00;1.00;;;;;19.70;55.18;102455.59;5075801;28;45424;-66
2024/01/24 09:10:06;;;;;;;;;1.67;1.00;;;;;20.15;53.72;102456.97;5076771;27;45271;-66
2024/01/24 09:12:32;;;;;;;;;0.00;0.00;;;;;20.48;52.70;102461.91;5061904;27;45512;-66
2024/01/24 09:14:57;;;;;;;;;2.33;1.00;;;;;20.67;52.30;102461.72;5066790;27;45386;-66
2024/01/24 09:17:23;;;;;;;;;3.00;1.00;;;;;21.51;50.67;102465.84;5075350;28;45325;-66
2024/01/24 09:19:49;;;;;;;;;4.00;1.00;;;;;21.93;48.82;102460.69;5071974;28;45356;-66
2024/01/24 09:22:14;;;;;;;;;3.67;1.00;;;;;22.58;47.16;102483.50;5080659;27;45508;-65
2024/01/24 09:24:40;;;;;;;;;6.00;3.00;;;;;23.46;46.08;102474.44;5078155;28;45803;-66
2024/01/24 09:27:05;;;;;;;;;1.00;1.00;;;;;24.27;44.39;102460.75;5063732;27;45422;-66
2024/01/24 09:29:31;;;;;;;;;1.00;1.00;;;;;25.23;42.83;102472.25;5071449;28;46962;-65
2024/01/24 09:31:57;;;;;;;;;4.50;0.75;;;;;25.65;41.10;102491.44;5045138;28;45386;-66
2024/01/24 09:34:26;;;;;;;;;2.50;0.25;;;;;25.67;41.57;102494.03;5062290;28;45520;-66
2024/01/24 09:36:54;;;;;;;;;0.50;0.50;;;;;26.67;39.78;102482.47;5077085;27;45542;-66
2024/01/24 09:39:19;;;;;;;;;2.00;0.50;;;;;27.83;38.05;102480.47;5059191;27;45572;-66
2024/01/24 09:41:48;;;;;;;;;4.50;1.00;;;;;28.47;35.64;102473.19;5060377;28;45438;-67
2024/01/24 09:44:16;;;;;;;;;0.00;0.00;;;;;28.81;34.34;102485.09;5060197;28;45496;-67
2024/01/24 09:46:42;;;;;;;;;3.00;1.00;;;;;28.11;35.44;102481.97;5072704;27;45480;-66
2024/01/24 09:49:10;;;;;;;;;3.25;2.00;;;;;27.64;35.39;102487.56;5063435;27;45555;-67
2024/01/24 09:51:35;;;;;;;;;4.60;1.40;;;;;27.72;35.03;102485.44;5057600;28;45501;-67
2024/01/24 09:54:08;;;;;;;;;2.75;1.50;;;;;28.03;34.61;102495.78;5075121;27;45342;-68
2024/01/24 09:56:35;;;;;;;;;4.50;2.25;;;;;28.80;33.39;102502.25;5071881;28;45817;-67
2024/01/24 09:59:08;;;;;;;;;1.80;0.80;;;;;29.34;32.43;102503.25;5061014;27;45426;-67
2024/01/24 10:01:35;;;;;;;;;3.00;2.00;;;;;29.61;31.19;102511.78;5064706;28;45570;-69
2024/01/24 10:04:02;;;;;;;;;78.75;65.75;;;;;28.12;33.83;102498.09;5062162;28;45457;-68
2024/01/24 10:06:28;;;;;;;;;16.50;15.25;;;;;26.88;34.36;102518.41;5068370;27;45466;-69
2024/01/24 10:08:58;;;;;;;;;3.80;3.00;;;;;25.46;35.60;102514.41;5060592;28;46328;-68
2024/01/24 10:11:25;;;;;;;;;119.00;100.00;;;;;24.60;37.13;102522.34;5057901;28;45527;-67
2024/01/24 10:14:00;;;;;;;;;9.75;7.50;;;;;23.91;38.01;102503.66;5063615;28;45483;-67
2024/01/24 10:16:27;;;;;;;;;10.50;5.75;;;;;24.66;38.14;102519.50;5066183;28;45501;-66
2024/01/24 10:18:56;;;;;;;;;9.00;7.00;;;;;25.21;36.54;102527.72;5079080;28;47660;-67
2024/01/24 10:21:22;;;;;;;;;4.00;3.50;;;;;26.52;34.35;102538.50;5077760;27;45407;-67
2024/01/24 10:23:48;;;;;;;;;8.75;3.75;;;;;27.62;33.04;102535.19;5067199;27;45451;-67
2024/01/24 10:26:14;;;;;;;;;5.25;2.00;;;;;28.80;31.98;102535.47;5074530;27;45641;-68
2024/01/24 10:28:42;;;;;;;;;4.25;2.00;;;;;28.66;31.75;102533.41;5093524;27;45419;-68
2024/01/24 10:31:09;;;;;;;;;10.00;8.25;;;;;27.03;33.94;102536.66;5061269;28;45350;-66
2024/01/24 10:33:34;;;;;;;;;35.00;25.00;;;;;25.49;35.78;102527.72;5064784;28;45471;-67
2024/01/24 10:36:00;;;;;;;;;6.25;4.50;;;;;24.71;36.68;102539.00;5065381;28;45355;-68
2024/01/24 10:38:31;;;;;;;;;10.00;3.75;;;;;24.58;36.45;102540.25;5078548;27;46247;-65
2024/01/24 10:41:01;;;;;;;;;8.20;2.00;;;;;25.66;34.99;102538.78;5077631;27;45477;-66
2024/01/24 10:43:28;;;;;;;;;7.25;3.00;;;;;25.08;35.81;102551.31;5079013;27;45301;-65
2024/01/24 10:45:56;;;;;;;;;6.75;4.00;;;;;24.12;36.18;102523.63;5079126;27;45338;-65
2024/01/24 10:48:22;;;;;;;;;9.75;3.00;;;;;23.46;37.74;102558.19;5079179;27;45897;-68
2024/01/24 10:50:48;;;;;;;;;3.25;2.75;;;;;22.76;38.82;102552.56;5079940;27;45414;-68
2024/01/24 10:53:14;;;;;;;;;5.75;3.75;;;;;21.87;39.92;102558.59;5079064;27;45511;-67
2024/01/24 10:55:41;;;;;;;;;4.25;3.00;;;;;21.29;40.85;102560.34;5079443;27;45506;-71
2024/01/24 10:58:11;;;;;;;;;7.67;5.00;;;;;21.67;41.44;102569.59;5091264;27;46708;-71
2024/01/24 11:00:39;;;;;;;;;4.67;4.67;;;;;23.86;37.62;102562.63;5094714;27;45443;-76
2024/01/24 11:03:06;;;;;;;;;4.75;3.25;;;;;25.14;35.66;102561.84;5076476;28;45451;-69
2024/01/24 11:05:37;;;;;;;;;7.75;3.75;;;;;26.72;34.23;102547.66;5078987;27;45291;-75
2024/01/24 11:08:05;;;;;;;;;9.33;8.00;;;;;28.10;32.50;102526.91;5075625;28;45807;-75
2024/01/24 11:10:38;;;;;;;;;7.00;4.75;;;;;29.25;31.20;102526.16;5079173;28;45608;-71
2024/01/24 11:13:05;;;;;;;;;5.75;5.75;;;;;29.93;30.28;102539.91;5064332;28;45334;-70
2024/01/24 11:15:32;;;;;;;;;12.00;7.00;;;;;30.57;28.92;102534.78;5096265;27;45576;-67
2024/01/24 11:18:31;;;;;;;;;8.25;6.50;;;;;30.45;28.78;102532.75;5096053;27;45376;-69
2024/01/24 11:21:00;;;;;;;;;7.00;6.40;;;;;30.76;28.64;102529.25;5095167;27;45455;-71